Time;durP1;ratioP1;P1;durP2;ratioP2;P2;SDS_P1;SDS_P2;PMS_P1;PMS_P2;Temp;Humidity;BMP_temperature;BMP_pressure;BME280_temperature;BME280_humidity;BME280_pressure;Samples;Min_cycle;Max_cycle;Signal;HPM_P1;HPM_P2
2022/07/02 00:00:21;;;;;;;2.30;2.20;;;;;;;;;;102349;1329;22600;-28
2022/07/02 00:02:51;;;;;;;2.50;2.30;;;;;;;;;;102364;1335;22773;-30
2022/07/02 00:05:21;;;;;;;2.20;1.90;;;;;;;;;;102420;1335;22608;-28
2022/07/02 00:07:50;;;;;;;14.60;2.10;;;;;;;;;;102278;1335;22591;-28
2022/07/02 00:10:20;;;;;;;3.70;2.40;;;;;;;;;;102250;1336;22633;-26
2022/07/02 00:12:48;;;;;;;2.40;2.20;;;;;;;;;;102264;1335;22592;-26
2022/07/02 00:15:17;;;;;;;2.50;2.20;;;;;;;;;;102277;1336;22686;-28
2022/07/02 00:17:46;;;;;;;3.70;2.20;;;;;;;;;;102328;1335;22617;-29
2022/07/02 00:20:15;;;;;;;2.80;2.10;;;;;;;;;;102364;1336;22589;-23
2022/07/02 00:22:44;;;;;;;2.00;1.80;;;;;;;;;;102281;1333;22610;-28
2022/07/02 00:25:13;;;;;;;3.20;2.00;;;;;;;;;;102274;1327;22584;-24
2022/07/02 00:27:42;;;;;;;1.80;1.70;;;;;;;;;;102343;1334;22648;-29
2022/07/02 00:30:11;;;;;;;3.00;2.40;;;;;;;;;;102433;1335;22592;-28
2022/07/02 00:32:40;;;;;;;2.80;2.30;;;;;;;;;;102257;1335;22732;-25
2022/07/02 00:35:09;;;;;;;2.20;2.00;;;;;;;;;;101635;1335;1003208;-25
2022/07/02 00:37:38;;;;;;;3.60;1.70;;;;;;;;;;102439;1335;22700;-26
2022/07/02 00:40:07;;;;;;;2.70;1.70;;;;;;;;;;102319;1335;22864;-25
2022/07/02 00:42:36;;;;;;;3.10;2.20;;;;;;;;;;102246;1335;25963;-28
2022/07/02 00:45:05;;;;;;;16.80;3.10;;;;;;;;;;102394;1335;22748;-30
2022/07/02 00:47:34;;;;;;;3.40;2.30;;;;;;;;;;102338;1329;22664;-24
2022/07/02 00:50:03;;;;;;;2.50;2.10;;;;;;;;;;102257;1335;22585;-28
2022/07/02 00:52:32;;;;;;;4.10;3.30;;;;;;;;;;102341;1335;22607;-28
2022/07/02 00:55:01;;;;;;;5.80;3.10;;;;;;;;;;102299;1335;22645;-28
2022/07/02 00:57:31;;;;;;;3.60;2.90;;;;;;;;;;102313;1335;22685;-29
2022/07/02 01:00:00;;;;;;;6.10;4.50;;;;;;;;;;102234;1335;22693;-28
2022/07/02 01:02:28;;;;;;;4.80;4.40;;;;;;;;;;102279;1335;22626;-28
2022/07/02 01:04:57;;;;;;;4.80;4.20;;;;;;;;;;102378;1335;22603;-31
2022/07/02 01:07:26;;;;;;;4.10;3.70;;;;;;;;;;102335;1335;22612;-25
2022/07/02 01:12:27;;;;;;;6.50;4.10;;;;;;;;;;102293;1335;22617;-25
2022/07/02 01:14:56;;;;;;;6.20;4.30;;;;;;;;;;102359;1335;22725;-27
2022/07/02 01:17:25;;;;;;;7.30;6.20;;;;;;;;;;102378;1335;22614;-29
2022/07/02 01:19:54;;;;;;;4.90;4.50;;;;;;;;;;102387;1335;22576;-30
2022/07/02 01:22:23;;;;;;;10.70;6.30;;;;;;;;;;102392;1335;22626;-30
2022/07/02 01:24:53;;;;;;;7.60;5.40;;;;;;;;;;102372;1335;22707;-25
2022/07/02 01:27:22;;;;;;;8.10;6.00;;;;;;;;;;102406;1335;22619;-25
2022/07/02 01:29:51;;;;;;;4.90;3.80;;;;;;;;;;102296;1335;22596;-25
2022/07/02 01:32:20;;;;;;;6.60;4.60;;;;;;;;;;102275;1335;22653;-24
2022/07/02 01:34:49;;;;;;;5.60;4.20;;;;;;;;;;102365;1335;22600;-24
2022/07/02 01:37:19;;;;;;;5.90;5.00;;;;;;;;;;102270;1335;22584;-29
2022/07/02 01:39:48;;;;;;;4.30;3.80;;;;;;;;;;102417;1335;22729;-28
2022/07/02 01:42:17;;;;;;;5.70;3.80;;;;;;;;;;102318;1335;22600;-24
2022/07/02 01:44:46;;;;;;;3.70;2.90;;;;;;;;;;102238;1335;22592;-24
2022/07/02 01:47:15;;;;;;;5.70;4.30;;;;;;;;;;102350;1335;22635;-24
2022/07/02 01:49:44;;;;;;;3.80;3.10;;;;;;;;;;102367;1335;22886;-31
2022/07/02 01:52:13;;;;;;;4.70;3.30;;;;;;;;;;102262;1335;23532;-28
2022/07/02 01:54:44;;;;;;;5.00;2.80;;;;;;;;;;102225;1336;22615;-29
2022/07/02 01:57:13;;;;;;;3.30;2.30;;;;;;;;;;102338;1335;22714;-24
2022/07/02 01:59:42;;;;;;;4.20;3.10;;;;;;;;;;102393;1335;22596;-29
2022/07/02 02:02:11;;;;;;;4.30;3.70;;;;;;;;;;102245;1335;22629;-24
2022/07/02 02:04:39;;;;;;;3.80;3.10;;;;;;;;;;102327;1336;22714;-29
2022/07/02 02:07:08;;;;;;;4.90;4.00;;;;;;;;;;102307;1335;22641;-24
2022/07/02 02:09:37;;;;;;;9.80;3.80;;;;;;;;;;102310;1335;22590;-31
2022/07/02 02:12:06;;;;;;;4.40;2.90;;;;;;;;;;102345;1335;22656;-31
2022/07/02 02:14:35;;;;;;;2.50;2.30;;;;;;;;;;102353;1335;22662;-28
2022/07/02 02:17:04;;;;;;;6.00;3.20;;;;;;;;;;102299;1335;22701;-25
2022/07/02 02:19:33;;;;;;;2.80;2.50;;;;;;;;;;102248;1329;22610;-28
2022/07/02 02:22:02;;;;;;;6.10;3.20;;;;;;;;;;102336;1335;22596;-28
2022/07/02 02:24:31;;;;;;;3.40;2.80;;;;;;;;;;102365;1335;22771;-24
2022/07/02 02:27:00;;;;;;;3.90;3.10;;;;;;;;;;102377;1335;22592;-26
2022/07/02 02:29:29;;;;;;;3.80;2.80;;;;;;;;;;102295;1336;22602;-24
2022/07/02 02:31:58;;;;;;;5.80;4.00;;;;;;;;;;102350;1335;22724;-23
2022/07/02 02:34:27;;;;;;;5.50;3.10;;;;;;;;;;102281;1335;22610;-24
2022/07/02 02:36:56;;;;;;;2.60;2.40;;;;;;;;;;102419;1335;22585;-28
2022/07/02 02:39:24;;;;;;;8.30;4.60;;;;;;;;;;102419;1335;22892;-24
2022/07/02 02:41:53;;;;;;;4.80;3.90;;;;;;;;;;102284;1335;22624;-29
2022/07/02 02:44:22;;;;;;;4.60;4.20;;;;;;;;;;102285;1335;22613;-28
2022/07/02 02:46:51;;;;;;;5.10;4.60;;;;;;;;;;102366;1335;22590;-24
2022/07/02 02:49:20;;;;;;;5.30;3.70;;;;;;;;;;102328;1335;22640;-24
2022/07/02 02:51:48;;;;;;;3.70;3.40;;;;;;;;;;102276;1335;22585;-24
2022/07/02 02:54:18;;;;;;;5.10;4.20;;;;;;;;;;102298;1335;22595;-28
2022/07/02 02:56:47;;;;;;;4.30;3.80;;;;;;;;;;102446;1335;22592;-31
2022/07/02 02:59:15;;;;;;;4.80;4.30;;;;;;;;;;102303;1335;22613;-24
2022/07/02 03:01:44;;;;;;;3.70;2.90;;;;;;;;;;102309;1335;22594;-24
2022/07/02 03:04:13;;;;;;;5.00;3.40;;;;;;;;;;102264;1336;22590;-22
2022/07/02 03:06:42;;;;;;;6.10;3.90;;;;;;;;;;102414;1335;22582;-25
2022/07/02 03:09:11;;;;;;;10.30;4.00;;;;;;;;;;102404;1335;22573;-29
2022/07/02 03:11:39;;;;;;;2.50;1.70;;;;;;;;;;102443;1335;22703;-29
2022/07/02 03:14:08;;;;;;;4.20;2.60;;;;;;;;;;102322;1335;22600;-25
2022/07/02 03:16:37;;;;;;;6.40;2.30;;;;;;;;;;102341;1336;22615;-29
2022/07/02 03:19:06;;;;;;;3.30;3.00;;;;;;;;;;102306;1335;22711;-25
2022/07/02 03:21:35;;;;;;;2.70;2.20;;;;;;;;;;102396;1335;22604;-24
2022/07/02 03:24:04;;;;;;;2.80;2.40;;;;;;;;;;102343;1332;22732;-24
2022/07/02 03:26:33;;;;;;;2.80;2.50;;;;;;;;;;102389;1335;22658;-28
2022/07/02 03:29:04;;;;;;;8.20;2.70;;;;;;;;;;102338;1335;25458;-29
2022/07/02 03:31:33;;;;;;;4.10;2.90;;;;;;;;;;102307;1335;22597;-28
2022/07/02 03:34:02;;;;;;;3.00;2.70;;;;;;;;;;102300;1335;22600;-29
2022/07/02 03:36:30;;;;;;;2.60;2.30;;;;;;;;;;102388;1335;22603;-28
2022/07/02 03:38:59;;;;;;;3.20;2.70;;;;;;;;;;102245;1335;22732;-28
2022/07/02 03:41:28;;;;;;;3.20;2.90;;;;;;;;;;102330;1329;22699;-23
2022/07/02 03:43:57;;;;;;;2.60;1.90;;;;;;;;;;102267;1335;22588;-29
2022/07/02 03:46:26;;;;;;;2.90;2.10;;;;;;;;;;102363;1329;22597;-25
2022/07/02 03:48:55;;;;;;;3.70;3.00;;;;;;;;;;102361;1329;22596;-25
2022/07/02 03:51:23;;;;;;;2.60;2.10;;;;;;;;;;102411;1336;22607;-29
2022/07/02 03:53:52;;;;;;;2.80;2.50;;;;;;;;;;102372;1335;22956;-29
2022/07/02 03:56:21;;;;;;;3.10;2.60;;;;;;;;;;102305;1335;22592;-30
2022/07/02 03:58:50;;;;;;;3.40;2.20;;;;;;;;;;102282;1335;22621;-28
2022/07/02 04:01:19;;;;;;;2.50;1.80;;;;;;;;;;102415;1329;22590;-29
2022/07/02 04:03:48;;;;;;;2.40;2.20;;;;;;;;;;102335;1334;22621;-28
2022/07/02 04:06:17;;;;;;;2.60;1.70;;;;;;;;;;102345;1335;22607;-28
2022/07/02 04:08:46;;;;;;;5.50;2.80;;;;;;;;;;102335;1335;22612;-28
2022/07/02 04:11:14;;;;;;;1.90;1.50;;;;;;;;;;102309;1335;22621;-29
2022/07/02 04:13:43;;;;;;;3.00;2.70;;;;;;;;;;102344;1334;22598;-29
2022/07/02 04:16:12;;;;;;;4.30;2.60;;;;;;;;;;102295;1335;22593;-28
2022/07/02 04:18:41;;;;;;;5.00;3.80;;;;;;;;;;102357;1335;22727;-25
2022/07/02 04:21:10;;;;;;;2.90;2.20;;;;;;;;;;102425;1335;22597;-31
2022/07/02 04:23:39;;;;;;;3.00;2.50;;;;;;;;;;102355;1334;22595;-25
2022/07/02 04:26:07;;;;;;;2.40;2.10;;;;;;;;;;102361;1329;22572;-25
2022/07/02 04:28:36;;;;;;;13.10;3.30;;;;;;;;;;102385;1335;22618;-24
2022/07/02 04:31:05;;;;;;;3.40;2.80;;;;;;;;;;102385;1334;22609;-30
2022/07/02 04:33:34;;;;;;;2.90;2.10;;;;;;;;;;102328;1335;22682;-24
2022/07/02 04:36:03;;;;;;;3.60;3.20;;;;;;;;;;102326;1329;22722;-29
2022/07/02 04:38:31;;;;;;;7.90;2.70;;;;;;;;;;102304;1335;22609;-24
2022/07/02 04:41:00;;;;;;;3.00;2.60;;;;;;;;;;102386;1334;22595;-24
2022/07/02 04:43:29;;;;;;;3.00;2.80;;;;;;;;;;102318;1335;22711;-24
2022/07/02 04:45:58;;;;;;;5.70;3.20;;;;;;;;;;102280;1335;22686;-24
2022/07/02 04:48:27;;;;;;;3.00;2.70;;;;;;;;;;102336;1335;22601;-28
2022/07/02 04:50:56;;;;;;;3.40;3.10;;;;;;;;;;102394;1335;22673;-25
2022/07/02 04:53:24;;;;;;;3.70;2.90;;;;;;;;;;102317;1335;22736;-24
2022/07/02 04:55:53;;;;;;;2.50;2.30;;;;;;;;;;102331;1335;22731;-24
2022/07/02 04:58:22;;;;;;;2.70;2.40;;;;;;;;;;102369;1335;22677;-28
2022/07/02 05:00:51;;;;;;;4.20;2.50;;;;;;;;;;102385;1329;22591;-28
2022/07/02 05:03:20;;;;;;;3.20;2.70;;;;;;;;;;102440;1335;22749;-24
2022/07/02 05:05:49;;;;;;;2.50;1.80;;;;;;;;;;102337;1335;22596;-28
2022/07/02 05:08:24;;;;;;;23.60;1.40;;;;;;;;;;102310;1335;22599;-28
2022/07/02 05:10:53;;;;;;;1.70;1.50;;;;;;;;;;102321;1335;22588;-29
2022/07/02 05:13:22;;;;;;;4.80;2.20;;;;;;;;;;102280;1335;22613;-25
2022/07/02 05:15:51;;;;;;;2.60;2.30;;;;;;;;;;102282;1329;22608;-25
2022/07/02 05:18:20;;;;;;;2.70;2.10;;;;;;;;;;102308;1335;22601;-24
2022/07/02 05:20:49;;;;;;;2.10;1.60;;;;;;;;;;102290;1335;22585;-24
2022/07/02 05:23:18;;;;;;;1.90;1.70;;;;;;;;;;102337;1335;22613;-23
2022/07/02 05:25:47;;;;;;;4.00;2.10;;;;;;;;;;102327;1335;22569;-28
2022/07/02 05:28:16;;;;;;;2.20;1.90;;;;;;;;;;102359;1335;22583;-30
2022/07/02 05:30:44;;;;;;;2.40;1.70;;;;;;;;;;102296;1335;22597;-29
2022/07/02 05:33:13;;;;;;;2.40;1.60;;;;;;;;;;102264;1335;22637;-29
2022/07/02 05:35:42;;;;;;;1.60;1.50;;;;;;;;;;102326;1335;22597;-28
2022/07/02 05:38:11;;;;;;;1.80;1.50;;;;;;;;;;102312;1335;22687;-28
2022/07/02 05:40:40;;;;;;;4.30;2.00;;;;;;;;;;102384;1335;22629;-27
2022/07/02 05:43:08;;;;;;;3.60;2.30;;;;;;;;;;102395;1335;22607;-24
2022/07/02 05:45:37;;;;;;;2.70;2.30;;;;;;;;;;102419;1335;22588;-25
2022/07/02 05:48:06;;;;;;;1.90;1.60;;;;;;;;;;102346;1330;22593;-28
2022/07/02 05:50:35;;;;;;;1.90;1.30;;;;;;;;;;102363;1335;22650;-25
2022/07/02 05:53:04;;;;;;;1.70;1.50;;;;;;;;;;102241;1335;22624;-25
2022/07/02 05:55:33;;;;;;;3.80;1.40;;;;;;;;;;102316;1335;22616;-29
2022/07/02 05:58:01;;;;;;;2.00;1.30;;;;;;;;;;102305;1335;22739;-30
2022/07/02 06:00:30;;;;;;;1.50;1.30;;;;;;;;;;102284;1329;22809;-24
2022/07/02 06:02:59;;;;;;;1.60;1.30;;;;;;;;;;102384;1335;22634;-24
2022/07/02 06:08:00;;;;;;;1.30;1.20;;;;;;;;;;102344;1335;22899;-26
2022/07/02 06:10:29;;;;;;;1.00;0.90;;;;;;;;;;102387;1335;22782;-25
2022/07/02 06:12:58;;;;;;;0.60;0.60;;;;;;;;;;102336;1335;22588;-29
2022/07/02 06:15:27;;;;;;;0.90;0.80;;;;;;;;;;102392;1329;22557;-25
2022/07/02 06:17:58;;;;;;;1.20;1.10;;;;;;;;;;102237;1328;180041;-30
2022/07/02 06:20:27;;;;;;;1.30;1.20;;;;;;;;;;102480;1335;22588;-25
2022/07/02 06:22:56;;;;;;;2.40;1.40;;;;;;;;;;102342;1335;22606;-24
2022/07/02 06:25:26;;;;;;;3.90;1.40;;;;;;;;;;102382;1333;22600;-24
2022/07/02 06:27:54;;;;;;;6.70;1.30;;;;;;;;;;102273;1335;22588;-28
2022/07/02 06:30:23;;;;;;;1.50;0.90;;;;;;;;;;102299;1335;22582;-25
2022/07/02 06:32:52;;;;;;;1.50;1.00;;;;;;;;;;102409;1335;22596;-29
2022/07/02 06:35:21;;;;;;;1.90;0.80;;;;;;;;;;102303;1335;22613;-28
2022/07/02 06:37:50;;;;;;;0.70;0.50;;;;;;;;;;102307;1335;22607;-29
2022/07/02 06:40:19;;;;;;;14.30;1.00;;;;;;;;;;102323;1335;22782;-28
2022/07/02 06:42:47;;;;;;;1.10;0.80;;;;;;;;;;102357;1335;22600;-29
2022/07/02 06:45:16;;;;;;;0.50;0.50;;;;;;;;;;102325;1335;22585;-25
2022/07/02 06:47:45;;;;;;;1.70;0.90;;;;;;;;;;102360;1335;22611;-29
2022/07/02 06:50:16;;;;;;;4.70;0.70;;;;;;;;;;102330;1329;22597;-26
2022/07/02 06:52:45;;;;;;;1.30;0.80;;;;;;;;;;102362;1335;22596;-31
2022/07/02 06:55:14;;;;;;;1.20;0.90;;;;;;;;;;102340;1335;22600;-29
2022/07/02 06:57:43;;;;;;;2.60;0.80;;;;;;;;;;102326;1335;22711;-29
2022/07/02 07:00:12;;;;;;;2.70;1.10;;;;;;;;;;102318;1335;22607;-25
2022/07/02 07:02:41;;;;;;;2.00;0.90;;;;;;;;;;102344;1335;22743;-25
2022/07/02 07:05:10;;;;;;;1.40;0.90;;;;;;;;;;102271;1335;22576;-27
2022/07/02 07:07:39;;;;;;;0.90;0.70;;;;;;;;;;102360;1335;22573;-29
2022/07/02 07:10:08;;;;;;;0.80;0.60;;;;;;;;;;102371;1335;22699;-25
2022/07/02 07:12:37;;;;;;;0.50;0.50;;;;;;;;;;102283;1335;22615;-25
2022/07/02 07:15:07;;;;;;;0.70;0.40;;;;;;;;;;102452;1336;22696;-26
2022/07/02 07:17:36;;;;;;;0.90;0.60;;;;;;;;;;102400;1335;22728;-27
2022/07/02 07:20:05;;;;;;;1.00;0.50;;;;;;;;;;102320;1335;22596;-30
2022/07/02 07:22:34;;;;;;;0.30;0.30;;;;;;;;;;102285;1335;22586;-25
2022/07/02 07:25:03;;;;;;;0.70;0.60;;;;;;;;;;102331;1335;22589;-29
2022/07/02 07:27:32;;;;;;;1.00;0.40;;;;;;;;;;102331;1335;22595;-29
2022/07/02 07:30:01;;;;;;;1.20;0.40;;;;;;;;;;102296;1335;22656;-29
2022/07/02 07:32:30;;;;;;;2.30;0.60;;;;;;;;;;102324;1335;22600;-25
2022/07/02 07:34:58;;;;;;;0.30;0.30;;;;;;;;;;102362;1336;22596;-28
2022/07/02 07:37:27;;;;;;;1.50;0.40;;;;;;;;;;102338;1335;22591;-28
2022/07/02 07:39:56;;;;;;;0.60;0.40;;;;;;;;;;102361;1329;22596;-29
2022/07/02 07:42:27;;;;;;;9.20;0.50;;;;;;;;;;102332;1335;22574;-25
2022/07/02 07:44:56;;;;;;;1.00;0.50;;;;;;;;;;102329;1336;22599;-24
2022/07/02 07:47:25;;;;;;;0.80;0.40;;;;;;;;;;102222;1336;22621;-31
2022/07/02 07:49:54;;;;;;;0.50;0.40;;;;;;;;;;102348;1335;22586;-27
2022/07/02 07:52:23;;;;;;;0.60;0.50;;;;;;;;;;102300;1335;22588;-30
2022/07/02 07:54:52;;;;;;;2.40;0.70;;;;;;;;;;102241;1336;22711;-30
2022/07/02 07:57:20;;;;;;;2.60;0.50;;;;;;;;;;102365;1335;22733;-26
2022/07/02 07:59:49;;;;;;;1.60;0.80;;;;;;;;;;102316;1335;22626;-29
2022/07/02 08:02:19;;;;;;;1.00;0.50;;;;;;;;;;102368;1335;22585;-27
2022/07/02 08:04:48;;;;;;;0.60;0.60;;;;;;;;;;102174;1335;22586;-25
2022/07/02 08:07:17;;;;;;;0.80;0.50;;;;;;;;;;102371;1335;22596;-32
2022/07/02 08:09:52;;;;;;;1.40;0.50;;;;;;;;;;102336;1335;22661;-29
2022/07/02 08:12:21;;;;;;;0.50;0.50;;;;;;;;;;102241;1336;22850;-25
2022/07/02 08:14:50;;;;;;;1.30;0.50;;;;;;;;;;102391;1335;22562;-28
2022/07/02 08:17:19;;;;;;;2.30;0.60;;;;;;;;;;102320;1335;22586;-25
2022/07/02 08:19:48;;;;;;;0.40;0.30;;;;;;;;;;101497;1335;1003667;-29
2022/07/02 08:22:17;;;;;;;3.50;0.50;;;;;;;;;;101650;1335;1003182;-30
2022/07/02 08:24:46;;;;;;;1.00;0.90;;;;;;;;;;102399;1334;22614;-29
2022/07/02 08:27:15;;;;;;;1.60;0.70;;;;;;;;;;102307;1335;22892;-30
2022/07/02 08:29:44;;;;;;;0.50;0.50;;;;;;;;;;102278;1335;22591;-30
2022/07/02 08:32:12;;;;;;;1.10;0.40;;;;;;;;;;102300;1335;22589;-25
2022/07/02 08:34:41;;;;;;;0.60;0.50;;;;;;;;;;102246;1335;22633;-29
2022/07/02 08:37:10;;;;;;;0.20;0.20;;;;;;;;;;102259;1334;22597;-29
2022/07/02 08:39:39;;;;;;;1.30;0.40;;;;;;;;;;102421;1335;22624;-29
2022/07/02 08:42:09;;;;;;;1.90;0.50;;;;;;;;;;102411;1335;22732;-24
2022/07/02 08:44:38;;;;;;;1.80;0.60;;;;;;;;;;102224;1335;26459;-25
2022/07/02 08:47:07;;;;;;;0.30;0.20;;;;;;;;;;102335;1330;22592;-31
2022/07/02 08:49:45;;;;;;;0.30;0.20;;;;;;;;;;102319;1335;22723;-30
2022/07/02 08:52:15;;;;;;;1.70;0.70;;;;;;;;;;102339;1335;22606;-27
2022/07/02 08:54:44;;;;;;;0.30;0.30;;;;;;;;;;102315;1335;22575;-31
2022/07/02 08:57:13;;;;;;;0.50;0.50;;;;;;;;;;102299;1335;22610;-25
2022/07/02 08:59:42;;;;;;;1.40;0.30;;;;;;;;;;102266;1335;22598;-31
2022/07/02 09:02:13;;;;;;;5.30;0.50;;;;;;;;;;102409;1335;22635;-27
2022/07/02 09:04:45;;;;;;;1.40;0.30;;;;;;;;;;102324;1334;24238;-25
2022/07/02 09:07:14;;;;;;;1.30;0.30;;;;;;;;;;102338;1335;22603;-29
2022/07/02 09:09:43;;;;;;;1.70;0.30;;;;;;;;;;102332;1335;22658;-31
2022/07/02 09:12:13;;;;;;;1.20;0.30;;;;;;;;;;102410;1334;22741;-31
2022/07/02 09:14:42;;;;;;;1.40;0.30;;;;;;;;;;102292;1334;22615;-26
2022/07/02 09:17:11;;;;;;;1.80;0.20;;;;;;;;;;102377;1334;22617;-23
2022/07/02 09:19:40;;;;;;;1.30;0.30;;;;;;;;;;102279;1329;22725;-27
2022/07/02 09:22:09;;;;;;;0.50;0.30;;;;;;;;;;102420;1335;22612;-25
2022/07/02 09:24:39;;;;;;;0.50;0.30;;;;;;;;;;102352;1335;22706;-29
2022/07/02 09:27:09;;;;;;;0.60;0.20;;;;;;;;;;102216;1333;22594;-31
2022/07/02 09:29:40;;;;;;;2.10;0.20;;;;;;;;;;102401;1335;22700;-27
2022/07/02 09:32:09;;;;;;;0.40;0.20;;;;;;;;;;102279;1335;22862;-25
2022/07/02 09:34:41;;;;;;;0.60;0.30;;;;;;;;;;102403;1335;22611;-29
2022/07/02 09:37:13;;;;;;;0.40;0.20;;;;;;;;;;102446;1335;22634;-29
2022/07/02 09:39:43;;;;;;;4.00;0.20;;;;;;;;;;102377;1335;22591;-31
2022/07/02 09:42:22;;;;;;;0.90;0.30;;;;;;;;;;102403;1328;22569;-31
2022/07/02 09:44:51;;;;;;;0.90;0.40;;;;;;;;;;102332;1334;22905;-25
2022/07/02 09:47:36;;;;;;;0.20;0.20;;;;;;;;;;102332;1335;22588;-25
2022/07/02 09:50:06;;;;;;;0.70;0.20;;;;;;;;;;102357;1335;22707;-24
2022/07/02 09:52:35;;;;;;;1.00;0.20;;;;;;;;;;102274;1335;22711;-29
2022/07/02 09:55:04;;;;;;;0.40;0.30;;;;;;;;;;102348;1335;22613;-29
2022/07/02 09:57:33;;;;;;;1.40;0.20;;;;;;;;;;102319;1335;22606;-25
2022/07/02 10:00:03;;;;;;;0.50;0.20;;;;;;;;;;102321;1329;22563;-25
2022/07/02 10:02:34;;;;;;;2.40;0.30;;;;;;;;;;102355;1335;23049;-25
2022/07/02 10:05:04;;;;;;;0.60;0.40;;;;;;;;;;102413;1335;22609;-30
2022/07/02 10:07:33;;;;;;;0.50;0.20;;;;;;;;;;102412;1335;22658;-25
2022/07/02 10:10:02;;;;;;;0.60;0.30;;;;;;;;;;102350;1335;22583;-30
2022/07/02 10:12:31;;;;;;;0.20;0.10;;;;;;;;;;102319;1335;22616;-24
2022/07/02 10:15:04;;;;;;;1.10;0.10;;;;;;;;;;102268;1335;22580;-29
2022/07/02 10:17:34;;;;;;;0.20;0.10;;;;;;;;;;102311;1335;22648;-25
2022/07/02 10:20:03;;;;;;;0.30;0.20;;;;;;;;;;102336;1335;22586;-31
2022/07/02 10:22:32;;;;;;;0.40;0.20;;;;;;;;;;102297;1335;22597;-25
2022/07/02 10:25:00;;;;;;;1.00;0.30;;;;;;;;;;102234;1335;22603;-25
2022/07/02 10:27:29;;;;;;;1.10;0.20;;;;;;;;;;102329;1335;22720;-29
2022/07/02 10:29:58;;;;;;;1.10;0.20;;;;;;;;;;102327;1335;22641;-29
2022/07/02 10:32:30;;;;;;;0.30;0.30;;;;;;;;;;102359;1335;22586;-25
2022/07/02 10:35:02;;;;;;;0.00;0.00;;;;;;;;;;102364;1335;22593;-25
2022/07/02 10:37:31;;;;;;;0.10;0.10;;;;;;;;;;102357;1335;22681;-28
2022/07/02 10:40:01;;;;;;;0.10;0.10;;;;;;;;;;102156;1336;22625;-25
2022/07/02 10:42:33;;;;;;;0.80;0.30;;;;;;;;;;102340;1335;22597;-30
2022/07/02 10:45:06;;;;;;;0.10;0.10;;;;;;;;;;102414;1335;22601;-29
2022/07/02 10:47:35;;;;;;;0.00;0.00;;;;;;;;;;102373;1324;22716;-25
2022/07/02 10:50:12;;;;;;;1.30;0.20;;;;;;;;;;102309;1335;22563;-29
2022/07/02 10:52:50;;;;;;;1.00;0.20;;;;;;;;;;102373;1335;22618;-28
2022/07/02 10:55:22;;;;;;;0.90;0.30;;;;;;;;;;102416;1335;22597;-26
2022/07/02 10:57:55;;;;;;;0.60;0.10;;;;;;;;;;102365;1335;22607;-29
2022/07/02 11:00:26;;;;;;;0.30;0.20;;;;;;;;;;102380;1335;22603;-26
2022/07/02 11:03:07;;;;;;;0.30;0.20;;;;;;;;;;102325;1335;22718;-29
2022/07/02 11:05:35;;;;;;;0.30;0.10;;;;;;;;;;102387;1335;22590;-25
2022/07/02 11:08:04;;;;;;;0.40;0.20;;;;;;;;;;102332;1335;22660;-25
2022/07/02 11:10:33;;;;;;;0.20;0.10;;;;;;;;;;102384;1335;22594;-28
2022/07/02 11:13:02;;;;;;;0.20;0.00;;;;;;;;;;102264;1335;22601;-28
2022/07/02 11:15:33;;;;;;;0.20;0.10;;;;;;;;;;102313;1336;22603;-24
2022/07/02 11:18:03;;;;;;;0.00;0.00;;;;;;;;;;102297;1335;22689;-24
2022/07/02 11:20:34;;;;;;;0.30;0.30;;;;;;;;;;102283;1335;22582;-24
2022/07/02 11:23:04;;;;;;;0.20;0.20;;;;;;;;;;102408;1334;22583;-29
2022/07/02 11:25:33;;;;;;;0.00;0.00;;;;;;;;;;102293;1335;22862;-29
2022/07/02 11:28:02;;;;;;;0.20;0.10;;;;;;;;;;102233;1335;22590;-25
2022/07/02 11:30:31;;;;;;;0.60;0.20;;;;;;;;;;102279;1335;22586;-28
2022/07/02 11:33:11;;;;;;;1.30;0.20;;;;;;;;;;102303;1336;22610;-24
2022/07/02 11:35:42;;;;;;;0.20;0.10;;;;;;;;;;102303;1335;22703;-28
2022/07/02 11:38:10;;;;;;;1.70;0.40;;;;;;;;;;102302;1335;23903;-28
2022/07/02 11:40:39;;;;;;;2.10;0.10;;;;;;;;;;102382;1335;22592;-25
2022/07/02 11:43:12;;;;;;;1.80;0.20;;;;;;;;;;102328;1335;22604;-24
2022/07/02 11:45:41;;;;;;;0.40;0.10;;;;;;;;;;102427;1335;22814;-28
2022/07/02 11:48:14;;;;;;;0.20;0.20;;;;;;;;;;102355;1335;22567;-26
2022/07/02 11:50:42;;;;;;;0.40;0.30;;;;;;;;;;102369;1335;22822;-30
2022/07/02 11:53:11;;;;;;;0.70;0.20;;;;;;;;;;102452;1335;22652;-30
2022/07/02 11:55:40;;;;;;;0.30;0.10;;;;;;;;;;102334;1334;22598;-27
2022/07/02 11:58:09;;;;;;;0.40;0.20;;;;;;;;;;102326;1335;22614;-28
2022/07/02 12:00:38;;;;;;;0.40;0.10;;;;;;;;;;102287;1335;22749;-24
2022/07/02 12:03:08;;;;;;;0.70;0.20;;;;;;;;;;102327;1335;22632;-25
2022/07/02 12:05:48;;;;;;;0.90;0.30;;;;;;;;;;102314;1335;22642;-25
2022/07/02 12:08:17;;;;;;;0.10;0.00;;;;;;;;;;102197;1335;23188;-25
2022/07/02 12:10:46;;;;;;;0.60;0.20;;;;;;;;;;102360;1335;22608;-24
2022/07/02 12:13:14;;;;;;;0.30;0.20;;;;;;;;;;102398;1335;22666;-30
2022/07/02 12:15:43;;;;;;;1.20;0.20;;;;;;;;;;102330;1335;22621;-29
2022/07/02 12:18:15;;;;;;;1.50;0.20;;;;;;;;;;102277;1335;22604;-26
2022/07/02 12:20:44;;;;;;;1.40;0.10;;;;;;;;;;102263;1335;22593;-24
2022/07/02 12:23:13;;;;;;;0.20;0.10;;;;;;;;;;102360;1335;22617;-29
2022/07/02 12:25:43;;;;;;;1.00;0.20;;;;;;;;;;102346;1334;22678;-24
2022/07/02 12:30:51;;;;;;;2.50;0.40;;;;;;;;;;102334;1335;22601;-27
2022/07/02 12:33:24;;;;;;;0.30;0.20;;;;;;;;;;102365;1335;22590;-24
2022/07/02 12:35:56;;;;;;;3.70;0.40;;;;;;;;;;102419;1335;22608;-30
2022/07/02 12:38:25;;;;;;;1.70;0.40;;;;;;;;;;102414;1334;22768;-30
2022/07/02 12:40:57;;;;;;;0.30;0.20;;;;;;;;;;102411;1335;22688;-26
2022/07/02 12:43:26;;;;;;;0.10;0.10;;;;;;;;;;102343;1335;22579;-28
2022/07/02 12:46:03;;;;;;;1.00;0.30;;;;;;;;;;102319;1329;22725;-28
2022/07/02 12:48:32;;;;;;;1.90;0.30;;;;;;;;;;101724;1335;1003120;-28
2022/07/02 12:51:07;;;;;;;1.10;0.30;;;;;;;;;;102370;1335;22610;-26
2022/07/02 12:53:36;;;;;;;2.20;0.20;;;;;;;;;;102407;1329;22600;-26
2022/07/02 12:56:06;;;;;;;0.50;0.20;;;;;;;;;;102403;1335;22799;-28
2022/07/02 12:58:37;;;;;;;1.50;0.30;;;;;;;;;;102300;1335;22593;-25
2022/07/02 13:01:06;;;;;;;0.70;0.20;;;;;;;;;;102343;1335;22690;-27
2022/07/02 13:03:35;;;;;;;0.80;0.30;;;;;;;;;;102356;1334;22569;-29
2022/07/02 13:06:04;;;;;;;0.60;0.40;;;;;;;;;;102330;1335;22860;-25
2022/07/02 13:08:33;;;;;;;1.70;0.20;;;;;;;;;;102343;1335;22704;-29
2022/07/02 13:11:04;;;;;;;0.20;0.10;;;;;;;;;;102380;1335;23925;-28
2022/07/02 13:13:33;;;;;;;1.60;0.20;;;;;;;;;;102287;1334;22664;-24
2022/07/02 13:16:02;;;;;;;0.50;0.20;;;;;;;;;;102202;1335;22596;-24
2022/07/02 13:18:31;;;;;;;0.20;0.10;;;;;;;;;;102335;1334;22600;-28
2022/07/02 13:21:00;;;;;;;0.30;0.10;;;;;;;;;;102252;1335;22623;-24
2022/07/02 13:23:29;;;;;;;0.30;0.10;;;;;;;;;;102385;1335;22593;-26
2022/07/02 13:25:57;;;;;;;0.20;0.20;;;;;;;;;;102399;1334;22595;-30
2022/07/02 13:28:26;;;;;;;0.10;0.10;;;;;;;;;;102282;1335;22609;-28
2022/07/02 13:30:55;;;;;;;1.10;0.20;;;;;;;;;;102337;1335;22616;-23
2022/07/02 13:33:26;;;;;;;0.50;0.20;;;;;;;;;;102264;1335;22628;-28
2022/07/02 13:35:55;;;;;;;0.90;0.70;;;;;;;;;;102269;1334;22599;-28
2022/07/02 13:38:24;;;;;;;2.50;0.40;;;;;;;;;;102348;1335;22596;-24
2022/07/02 13:40:53;;;;;;;4.90;0.40;;;;;;;;;;102410;1335;22611;-27
2022/07/02 13:43:22;;;;;;;0.70;0.10;;;;;;;;;;102376;1334;25207;-30
2022/07/02 13:45:50;;;;;;;0.80;0.20;;;;;;;;;;102331;1335;22596;-28
2022/07/02 13:48:19;;;;;;;0.60;0.20;;;;;;;;;;102334;1335;22575;-24
2022/07/02 13:50:48;;;;;;;0.30;0.20;;;;;;;;;;102294;1335;22602;-24
2022/07/02 13:53:17;;;;;;;0.20;0.10;;;;;;;;;;102259;1335;22590;-28
2022/07/02 13:55:46;;;;;;;1.40;0.20;;;;;;;;;;102292;1334;22601;-24
2022/07/02 13:58:15;;;;;;;0.80;0.30;;;;;;;;;;102313;1335;22585;-30
2022/07/02 14:00:43;;;;;;;1.40;0.30;;;;;;;;;;102307;1335;22718;-30
2022/07/02 14:03:12;;;;;;;0.40;0.20;;;;;;;;;;102353;1335;22724;-30
2022/07/02 14:05:41;;;;;;;0.30;0.20;;;;;;;;;;102287;1335;22616;-26
2022/07/02 14:08:10;;;;;;;0.30;0.20;;;;;;;;;;102287;1335;22664;-29
2022/07/02 14:10:39;;;;;;;5.20;1.80;;;;;;;;;;102390;1335;22597;-30
2022/07/02 14:13:08;;;;;;;5.90;3.80;;;;;;;;;;102370;1335;22598;-25
2022/07/02 14:15:38;;;;;;;1.20;0.80;;;;;;;;;;102199;1335;22600;-29
2022/07/02 14:18:07;;;;;;;0.50;0.30;;;;;;;;;;102048;1335;302651;-26
2022/07/02 14:20:36;;;;;;;0.10;0.00;;;;;;;;;;102362;1335;22662;-26
2022/07/02 14:23:05;;;;;;;0.30;0.20;;;;;;;;;;101583;1335;1003873;-25
2022/07/02 14:25:33;;;;;;;0.80;0.20;;;;;;;;;;102296;1335;22613;-28
2022/07/02 14:28:02;;;;;;;1.20;0.30;;;;;;;;;;102290;1335;22600;-28
2022/07/02 14:30:31;;;;;;;1.40;0.30;;;;;;;;;;102379;1335;22731;-25
2022/07/02 14:33:00;;;;;;;0.50;0.10;;;;;;;;;;102379;1335;22662;-25
2022/07/02 14:35:29;;;;;;;0.60;0.10;;;;;;;;;;102322;1335;22593;-25
2022/07/02 14:37:58;;;;;;;0.90;0.30;;;;;;;;;;102313;1335;22601;-28
2022/07/02 14:40:27;;;;;;;0.40;0.20;;;;;;;;;;102366;1329;22606;-30
2022/07/02 14:42:56;;;;;;;0.70;0.20;;;;;;;;;;102395;1335;22766;-30
2022/07/02 14:45:25;;;;;;;0.80;0.30;;;;;;;;;;102390;1335;22742;-30
2022/07/02 14:47:54;;;;;;;0.30;0.30;;;;;;;;;;102333;1335;22609;-25